createdAt,value
2023-02-18T00:01:31.204Z,6.80
2023-02-18T00:04:00.095Z,6.90
2023-02-18T00:06:29.997Z,6.70
2023-02-18T00:08:59.057Z,7.10
2023-02-18T00:11:26.262Z,7.10
2023-02-18T00:13:57.411Z,6.50
2023-02-18T00:16:25.574Z,6.80
2023-02-18T00:19:00.817Z,7.00
2023-02-18T00:21:27.978Z,7.50
2023-02-18T00:23:55.985Z,6.80
2023-02-18T00:26:23.570Z,7.00
2023-02-18T00:28:51.915Z,6.80
2023-02-18T00:31:28.176Z,6.80
2023-02-18T00:33:57.472Z,7.00
2023-02-18T00:36:25.434Z,6.70
2023-02-18T00:38:56.203Z,6.80
2023-02-18T00:41:25.362Z,6.80
2023-02-18T00:43:56.000Z,6.90
2023-02-18T00:46:24.659Z,6.80
2023-02-18T00:48:54.815Z,7.20
2023-02-18T00:51:22.163Z,6.50
2023-02-18T00:53:49.944Z,7.00
2023-02-18T00:56:17.414Z,6.90
2023-02-18T00:58:44.771Z,7.00
2023-02-18T01:01:12.080Z,6.70
2023-02-18T01:03:42.589Z,6.50
2023-02-18T01:06:11.594Z,7.00
2023-02-18T01:08:40.703Z,7.10
2023-02-18T01:11:09.245Z,6.40
2023-02-18T01:13:37.139Z,7.00
2023-02-18T01:16:07.321Z,6.70
2023-02-18T01:18:34.997Z,7.00
2023-02-18T01:21:08.427Z,6.40
2023-02-18T01:23:38.166Z,6.20
2023-02-18T01:28:33.785Z,6.50
2023-02-18T01:31:06.708Z,6.70
2023-02-18T01:33:34.263Z,6.50
2023-02-18T01:36:01.609Z,6.60
2023-02-18T01:38:28.887Z,7.00
2023-02-18T01:40:56.062Z,6.90
2023-02-18T01:43:23.746Z,7.20
2023-02-18T01:46:05.340Z,7.00
2023-02-18T01:48:43.360Z,6.60
2023-02-18T01:51:16.454Z,6.20
2023-02-18T01:53:50.953Z,6.50
2023-02-18T01:56:43.726Z,6.70
2023-02-18T01:59:17.459Z,6.30
2023-02-18T02:01:46.874Z,6.80
2023-02-18T02:04:14.390Z,6.80
2023-02-18T02:06:41.998Z,6.60
2023-02-18T02:09:17.444Z,6.40
2023-02-18T02:12:12.172Z,6.30
2023-02-18T02:14:45.666Z,6.70
2023-02-18T02:17:31.597Z,6.40
2023-02-18T02:20:17.003Z,6.30
2023-02-18T02:23:22.134Z,6.30
2023-02-18T02:25:58.085Z,6.40
2023-02-18T02:28:45.975Z,6.30
2023-02-18T02:31:35.766Z,6.40
2023-02-18T02:34:05.608Z,6.40
2023-02-18T02:36:49.673Z,6.10
2023-02-18T02:39:29.387Z,5.80
2023-02-18T02:42:15.951Z,6.20
2023-02-18T02:45:07.522Z,6.30
2023-02-18T02:47:58.558Z,6.10
2023-02-18T02:50:35.136Z,6.60
2023-02-18T02:53:08.308Z,6.10
2023-02-18T02:58:03.532Z,6.30
2023-02-18T03:01:01.537Z,6.40
2023-02-18T03:03:44.889Z,6.20
2023-02-18T03:06:41.658Z,6.20
2023-02-18T03:09:33.806Z,6.20
2023-02-18T03:12:11.698Z,6.00
2023-02-18T03:14:58.043Z,6.00
2023-02-18T03:17:34.893Z,6.20
2023-02-18T03:20:10.440Z,6.90
2023-02-18T03:22:43.768Z,6.10
2023-02-18T03:25:13.137Z,5.60
2023-02-18T03:27:50.807Z,6.00
2023-02-18T03:30:27.363Z,6.40
2023-02-18T03:32:59.560Z,6.10
2023-02-18T03:35:28.917Z,6.10
2023-02-18T03:38:09.641Z,6.00
2023-02-18T03:40:37.221Z,5.90
2023-02-18T03:43:04.764Z,6.00
2023-02-18T03:45:32.991Z,5.90
2023-02-18T03:47:59.954Z,5.80
2023-02-18T03:50:28.541Z,6.10
2023-02-18T03:52:55.582Z,6.10
2023-02-18T03:55:23.143Z,6.10
2023-02-18T03:57:50.192Z,6.00
2023-02-18T04:00:18.049Z,5.70
2023-02-18T04:02:45.296Z,6.10
2023-02-18T04:05:13.003Z,6.00
2023-02-18T04:07:40.026Z,5.50
2023-02-18T04:10:08.496Z,6.10
2023-02-18T04:12:35.560Z,6.00
2023-02-18T04:15:02.858Z,5.70
2023-02-18T04:17:29.879Z,5.70
2023-02-18T04:19:57.124Z,5.80
2023-02-18T04:22:24.345Z,5.50
2023-02-18T04:24:51.910Z,6.00
2023-02-18T04:27:19.112Z,5.50
2023-02-18T04:29:46.464Z,6.10
2023-02-18T04:32:13.464Z,6.00
2023-02-18T04:34:40.725Z,5.60
2023-02-18T04:39:35.482Z,5.70
2023-02-18T04:42:02.658Z,6.00
2023-02-18T04:44:29.987Z,6.10
2023-02-18T04:46:57.039Z,5.60
2023-02-18T04:49:24.282Z,5.80
2023-02-18T04:54:18.960Z,5.80
2023-02-18T04:56:45.939Z,5.70
2023-02-18T04:59:13.245Z,5.30
2023-02-18T05:01:40.237Z,5.80
2023-02-18T05:06:35.116Z,5.70
2023-02-18T05:09:02.450Z,6.50
2023-02-18T05:11:29.397Z,5.50
2023-02-18T05:13:56.668Z,5.50
2023-02-18T05:16:24.082Z,5.40
2023-02-18T05:18:51.525Z,5.50
2023-02-18T05:21:18.733Z,5.60
2023-02-18T05:23:46.097Z,5.10
2023-02-18T05:26:13.214Z,5.60
2023-02-18T05:28:40.600Z,5.70
2023-02-18T05:31:07.765Z,5.70
2023-02-18T05:33:35.171Z,5.70
2023-02-18T05:36:02.169Z,5.20
2023-02-18T05:38:29.506Z,5.30
2023-02-18T05:40:56.513Z,5.90
2023-02-18T05:43:23.824Z,5.20
2023-02-18T05:45:50.814Z,5.40
2023-02-18T05:48:18.358Z,5.20
2023-02-18T05:50:45.426Z,5.10
2023-02-18T05:53:12.880Z,5.40
2023-02-18T05:55:39.997Z,5.30
2023-02-18T05:58:07.996Z,5.00
2023-02-18T06:00:35.154Z,4.80
2023-02-18T06:03:02.590Z,5.20
2023-02-18T06:05:29.738Z,5.20
2023-02-18T06:10:24.662Z,5.00
2023-02-18T06:12:51.976Z,4.30
2023-02-18T06:15:19.013Z,4.90
2023-02-18T06:17:46.342Z,5.00
2023-02-18T06:20:13.355Z,5.30
2023-02-18T06:22:40.741Z,5.30
2023-02-18T06:25:07.907Z,5.00
2023-02-18T06:27:35.217Z,5.80
2023-02-18T06:30:02.252Z,5.00
2023-02-18T06:32:29.531Z,4.90
2023-02-18T06:34:56.491Z,5.40
2023-02-18T06:37:23.882Z,5.10
2023-02-18T06:39:51.087Z,5.50
2023-02-18T06:42:18.611Z,5.50
2023-02-18T06:44:45.595Z,5.40
2023-02-18T06:47:12.945Z,5.20
2023-02-18T06:49:40.104Z,5.10
2023-02-18T06:52:07.447Z,5.20
2023-02-18T06:54:34.916Z,5.20
2023-02-18T06:57:08.280Z,5.30
2023-02-18T06:59:35.375Z,5.20
2023-02-18T07:02:02.719Z,5.50
2023-02-18T07:04:29.829Z,4.60
2023-02-18T07:06:57.104Z,5.40
2023-02-18T07:09:24.118Z,5.50
2023-02-18T07:11:51.459Z,5.60
2023-02-18T07:14:18.432Z,5.50
2023-02-18T07:16:46.129Z,5.30
2023-02-18T07:21:42.835Z,5.50
2023-02-18T07:24:09.909Z,5.50
2023-02-18T07:26:37.443Z,5.30
2023-02-18T07:29:04.531Z,5.60
2023-02-18T07:31:31.938Z,5.10
2023-02-18T07:33:59.140Z,5.90
2023-02-18T07:38:57.889Z,5.60
2023-02-18T07:41:25.393Z,6.10
2023-02-18T07:43:52.440Z,6.30
2023-02-18T07:46:19.882Z,6.60
2023-02-18T07:48:47.050Z,6.00
2023-02-18T07:51:14.494Z,6.50
2023-02-18T07:53:41.524Z,6.30
2023-02-18T07:56:09.275Z,6.10
2023-02-18T07:58:38.021Z,6.40
2023-02-18T08:01:08.862Z,6.20
2023-02-18T08:03:36.133Z,6.30
2023-02-18T08:06:05.320Z,6.00
2023-02-18T08:08:35.712Z,5.80
2023-02-18T08:13:47.287Z,6.20
2023-02-18T08:16:17.805Z,6.00
2023-02-18T08:18:45.249Z,5.90
2023-02-18T08:21:13.124Z,7.10
2023-02-18T08:23:40.697Z,6.00
2023-02-18T08:26:09.589Z,6.00
2023-02-18T08:28:46.145Z,6.20
2023-02-18T08:31:22.654Z,6.50
2023-02-18T08:33:50.082Z,6.50
2023-02-18T08:36:17.899Z,6.10
2023-02-18T08:38:44.943Z,6.00
2023-02-18T08:41:14.458Z,5.60
2023-02-18T08:43:42.957Z,6.50
2023-02-18T08:46:15.778Z,5.90
2023-02-18T08:48:44.928Z,6.00
2023-02-18T08:51:17.897Z,6.10
2023-02-18T08:53:47.399Z,6.50
2023-02-18T08:56:15.813Z,6.20
2023-02-18T08:58:43.201Z,5.80
2023-02-18T09:01:12.664Z,6.30
2023-02-18T09:03:40.171Z,6.40
2023-02-18T09:06:08.165Z,6.50
2023-02-18T09:08:35.181Z,6.50
2023-02-18T09:11:05.926Z,6.90
2023-02-18T09:13:33.893Z,5.60
2023-02-18T09:16:04.541Z,6.80
2023-02-18T09:18:32.632Z,6.70
2023-02-18T09:21:00.755Z,6.70
2023-02-18T09:23:31.991Z,6.90
2023-02-18T09:25:59.815Z,6.70
2023-02-18T09:28:27.421Z,6.90
2023-02-18T09:30:54.816Z,6.80
2023-02-18T09:33:24.601Z,6.80
2023-02-18T09:35:51.962Z,7.00
2023-02-18T09:38:18.988Z,7.20
2023-02-18T09:40:50.710Z,7.20
2023-02-18T09:43:32.712Z,7.00
2023-02-18T09:46:02.261Z,6.40
2023-02-18T09:48:33.435Z,6.70
2023-02-18T09:51:01.084Z,7.10
2023-02-18T09:53:28.976Z,6.70
2023-02-18T09:55:58.612Z,6.70
2023-02-18T09:58:30.530Z,7.00
2023-02-18T10:01:07.173Z,7.20
2023-02-18T10:03:34.407Z,7.00
2023-02-18T10:06:08.540Z,7.10
2023-02-18T10:08:38.100Z,8.10
2023-02-18T10:11:21.889Z,7.10
2023-02-18T10:13:49.311Z,7.00
2023-02-18T10:16:19.375Z,7.30
2023-02-18T10:18:50.989Z,7.60
2023-02-18T10:21:24.156Z,7.60
2023-02-18T10:24:00.697Z,7.30
2023-02-18T10:26:33.527Z,7.10
2023-02-18T10:29:01.761Z,7.60
2023-02-18T10:31:35.841Z,7.40
2023-02-18T10:34:30.238Z,7.40
2023-02-18T10:37:24.132Z,7.40
2023-02-18T10:40:18.499Z,7.50
2023-02-18T10:43:09.322Z,7.30
2023-02-18T10:46:13.714Z,7.30
2023-02-18T10:48:57.964Z,7.60
2023-02-18T10:51:29.560Z,8.10
2023-02-18T10:53:57.299Z,8.10
2023-02-18T10:56:36.252Z,8.30
2023-02-18T10:59:33.641Z,8.10
2023-02-18T11:02:14.274Z,7.90
2023-02-18T11:04:44.622Z,8.10
2023-02-18T11:07:30.185Z,7.90
2023-02-18T11:10:00.799Z,7.80
2023-02-18T11:12:50.281Z,7.70
2023-02-18T11:15:24.314Z,7.60
2023-02-18T11:17:58.825Z,7.60
2023-02-18T11:20:32.101Z,7.90
2023-02-18T11:23:08.429Z,7.60
2023-02-18T11:25:39.353Z,7.50
2023-02-18T11:28:08.751Z,8.00
2023-02-18T11:30:50.771Z,8.00
2023-02-18T11:35:54.510Z,8.00
2023-02-18T11:38:50.114Z,8.40
2023-02-18T11:41:39.616Z,8.10
2023-02-18T11:44:21.218Z,8.30
2023-02-18T11:46:56.558Z,8.00
2023-02-18T11:49:24.080Z,8.00
2023-02-18T11:51:51.825Z,9.10
2023-02-18T11:54:32.146Z,7.80
2023-02-18T11:57:05.339Z,6.00
2023-02-18T11:59:43.566Z,7.50
2023-02-18T12:02:10.828Z,7.40
2023-02-18T12:04:56.140Z,7.40
2023-02-18T12:07:35.278Z,7.40
2023-02-18T12:10:39.417Z,7.40
2023-02-18T12:13:48.289Z,7.50
2023-02-18T12:16:29.560Z,8.00
2023-02-18T12:19:20.827Z,7.90
2023-02-18T12:22:22.202Z,7.80
2023-02-18T12:24:55.296Z,8.10
2023-02-18T12:27:30.464Z,7.80
2023-02-18T12:30:21.826Z,8.20
2023-02-18T12:33:12.936Z,8.30
2023-02-18T12:35:57.972Z,8.50
2023-02-18T12:38:44.432Z,8.30
2023-02-18T12:41:23.254Z,7.70
2023-02-18T12:44:11.311Z,8.00
2023-02-18T12:46:57.473Z,8.50
2023-02-18T12:50:05.315Z,8.60
2023-02-18T12:52:54.329Z,8.40
2023-02-18T12:55:43.568Z,8.70
2023-02-18T12:58:38.648Z,8.30
2023-02-18T13:01:40.154Z,8.00
2023-02-18T13:04:28.353Z,8.00
2023-02-18T13:07:20.403Z,7.70
2023-02-18T13:10:02.603Z,7.80
2023-02-18T13:12:59.176Z,7.80
2023-02-18T13:15:51.156Z,7.70
2023-02-18T13:18:24.327Z,8.10
2023-02-18T13:20:59.077Z,7.70
2023-02-18T13:23:50.972Z,7.60
2023-02-18T13:26:19.308Z,7.60
2023-02-18T13:29:07.835Z,7.40
2023-02-18T13:31:38.049Z,7.40
2023-02-18T13:34:42.998Z,7.90
2023-02-18T13:37:27.776Z,7.40
2023-02-18T13:40:00.669Z,7.40
2023-02-18T13:44:55.598Z,7.40
2023-02-18T13:47:46.716Z,7.20
2023-02-18T13:50:23.250Z,7.30
2023-02-18T13:52:57.316Z,7.70
2023-02-18T13:55:35.453Z,7.00
2023-02-18T13:58:02.967Z,7.00
2023-02-18T14:00:40.034Z,7.20
2023-02-18T14:03:36.222Z,6.50
2023-02-18T14:06:25.331Z,7.50
2023-02-18T14:09:03.332Z,7.00
2023-02-18T14:11:41.926Z,7.30
2023-02-18T14:14:34.812Z,6.90
2023-02-18T14:17:20.795Z,6.90
2023-02-18T14:19:58.872Z,6.70
2023-02-18T14:22:32.130Z,7.00
2023-02-18T14:25:08.156Z,6.90
2023-02-18T14:27:36.589Z,7.00
2023-02-18T14:30:19.092Z,6.90
2023-02-18T14:32:46.747Z,6.30
2023-02-18T14:35:14.121Z,6.50
2023-02-18T14:38:00.478Z,6.50
2023-02-18T14:40:43.469Z,6.80
2023-02-18T14:43:44.246Z,6.60
2023-02-18T14:46:47.923Z,6.40
2023-02-18T14:49:36.866Z,6.40
2023-02-18T14:52:07.632Z,6.40
2023-02-18T14:54:35.872Z,6.30
2023-02-18T14:57:13.863Z,6.50
2023-02-18T14:59:42.923Z,6.00
2023-02-18T15:02:31.006Z,6.10
2023-02-18T15:05:17.978Z,6.40
2023-02-18T15:08:03.627Z,6.20
2023-02-18T15:10:39.367Z,5.90
2023-02-18T15:13:14.247Z,5.70
2023-02-18T15:15:43.513Z,5.90
2023-02-18T15:18:28.397Z,6.80
2023-02-18T15:20:55.596Z,5.50
2023-02-18T15:23:23.382Z,5.50
2023-02-18T15:25:54.207Z,5.40
2023-02-18T15:28:26.347Z,5.30
2023-02-18T15:30:53.778Z,5.60
2023-02-18T15:33:21.930Z,5.40
2023-02-18T15:35:49.486Z,5.10
2023-02-18T15:38:19.456Z,4.80
2023-02-18T15:40:54.860Z,5.40
2023-02-18T15:43:26.604Z,4.90
2023-02-18T15:45:57.373Z,5.20
2023-02-18T15:48:38.001Z,5.20
2023-02-18T15:51:16.768Z,5.40
2023-02-18T15:53:49.024Z,5.20
2023-02-18T15:56:29.440Z,5.00
2023-02-18T15:59:14.775Z,5.10
2023-02-18T16:01:42.502Z,4.90
2023-02-18T16:04:14.048Z,5.00
2023-02-18T16:06:46.892Z,5.20
2023-02-18T16:09:22.570Z,5.10
2023-02-18T16:11:57.133Z,4.90
2023-02-18T16:14:35.075Z,7.70
2023-02-18T16:17:18.700Z,5.10
2023-02-18T16:20:05.564Z,5.50
2023-02-18T16:22:36.358Z,4.90
2023-02-18T16:25:12.570Z,5.60
2023-02-18T16:27:53.616Z,5.10
2023-02-18T16:30:25.833Z,5.10
2023-02-18T16:32:54.284Z,4.90
2023-02-18T16:35:23.329Z,5.20
2023-02-18T16:37:50.553Z,5.00
2023-02-18T16:40:29.353Z,4.80
2023-02-18T16:43:01.665Z,4.90
2023-02-18T16:45:43.855Z,4.40
2023-02-18T16:48:40.724Z,4.80
2023-02-18T16:51:32.998Z,4.90
2023-02-18T16:56:32.340Z,4.80
2023-02-18T16:58:59.787Z,5.00
2023-02-18T17:01:29.513Z,4.80
2023-02-18T17:04:01.699Z,5.00
2023-02-18T17:06:30.047Z,4.80
2023-02-18T17:08:57.259Z,4.80
2023-02-18T17:11:33.766Z,4.60
2023-02-18T17:14:06.264Z,4.70
2023-02-18T17:16:33.909Z,4.50
2023-02-18T17:19:01.031Z,5.10
2023-02-18T17:21:28.570Z,4.80
2023-02-18T17:26:28.478Z,4.70
2023-02-18T17:28:57.728Z,4.50
2023-02-18T17:31:31.608Z,4.50
2023-02-18T17:34:01.346Z,4.60
2023-02-18T17:36:28.819Z,4.60
2023-02-18T17:38:59.756Z,4.10
2023-02-18T17:41:31.078Z,4.30
2023-02-18T17:46:26.327Z,4.30
2023-02-18T17:51:26.693Z,5.00
2023-02-18T17:53:54.332Z,4.40
2023-02-18T17:56:22.689Z,4.50
2023-02-18T17:58:49.807Z,4.00
2023-02-18T18:01:21.211Z,4.20
2023-02-18T18:06:17.959Z,3.80
2023-02-18T18:08:47.124Z,3.90
2023-02-18T18:11:25.886Z,4.00
2023-02-18T18:13:53.431Z,3.60
2023-02-18T18:16:21.634Z,3.70
2023-02-18T18:18:48.897Z,3.80
2023-02-18T18:21:34.578Z,3.70
2023-02-18T18:24:02.565Z,3.60
2023-02-18T18:28:58.217Z,4.00
2023-02-18T18:31:25.859Z,4.20
2023-02-18T18:36:24.086Z,4.00
2023-02-18T18:38:51.998Z,4.20
2023-02-18T18:41:21.857Z,4.10
2023-02-18T18:46:17.795Z,4.00
2023-02-18T18:48:45.044Z,3.90
2023-02-18T18:51:20.810Z,4.10
2023-02-18T18:53:48.091Z,4.30
2023-02-18T18:56:15.786Z,3.90
2023-02-18T19:01:18.280Z,3.80
2023-02-18T19:03:46.542Z,4.10
2023-02-18T19:06:19.078Z,4.00
2023-02-18T19:08:48.131Z,3.50
2023-02-18T19:11:16.240Z,3.90
2023-02-18T19:13:43.693Z,4.40
2023-02-18T19:16:13.955Z,4.00
2023-02-18T19:18:42.461Z,3.50
2023-02-18T19:21:10.215Z,3.70
2023-02-18T19:23:37.718Z,3.30
2023-02-18T19:26:06.358Z,3.70
2023-02-18T19:28:33.646Z,3.20
2023-02-18T19:31:01.732Z,3.20
2023-02-18T19:35:57.823Z,3.20
2023-02-18T19:38:27.249Z,3.00
2023-02-18T19:43:23.892Z,2.90
2023-02-18T19:45:51.385Z,3.10
2023-02-18T19:48:18.717Z,2.80
2023-02-18T19:50:48.005Z,2.80
2023-02-18T19:53:15.236Z,2.90
2023-02-18T19:55:42.728Z,3.00
2023-02-18T19:58:10.604Z,2.80
2023-02-18T20:00:40.490Z,3.00
2023-02-18T20:03:07.625Z,2.80
2023-02-18T20:05:40.482Z,3.00
2023-02-18T20:08:09.884Z,2.60
2023-02-18T20:10:41.503Z,2.80
2023-02-18T20:13:12.118Z,2.70
2023-02-18T20:15:40.842Z,2.30
2023-02-18T20:18:08.633Z,2.70
2023-02-18T20:23:05.874Z,3.10
2023-02-18T20:25:33.576Z,2.70
2023-02-18T20:28:01.838Z,2.90
2023-02-18T20:30:29.696Z,2.30
2023-02-18T20:32:57.390Z,2.30
2023-02-18T20:35:28.213Z,2.10
2023-02-18T20:37:58.309Z,2.40
2023-02-18T20:40:25.871Z,2.60
2023-02-18T20:42:53.477Z,2.40
2023-02-18T20:45:20.972Z,2.10
2023-02-18T20:47:48.599Z,2.20
2023-02-18T20:50:16.654Z,2.20
2023-02-18T20:52:43.885Z,2.00
2023-02-18T20:55:11.353Z,2.20
2023-02-18T20:57:40.698Z,2.50
2023-02-18T21:00:09.248Z,2.20
2023-02-18T21:02:37.666Z,2.10
2023-02-18T21:05:05.512Z,1.90
2023-02-18T21:07:35.622Z,1.80
2023-02-18T21:10:04.425Z,2.20
2023-02-18T21:12:31.874Z,1.70
2023-02-18T21:15:00.388Z,2.20
2023-02-18T21:17:28.037Z,2.10
2023-02-18T21:19:55.683Z,1.90
2023-02-18T21:22:22.965Z,1.90
2023-02-18T21:24:51.654Z,2.00
2023-02-18T21:27:18.740Z,1.70
2023-02-18T21:29:46.093Z,2.20
2023-02-18T21:32:14.599Z,1.70
2023-02-18T21:34:42.070Z,1.50
2023-02-18T21:37:09.314Z,1.60
2023-02-18T21:39:36.665Z,1.10
2023-02-18T21:42:04.834Z,2.70
2023-02-18T21:44:41.758Z,2.00
2023-02-18T21:47:09.725Z,1.90
2023-02-18T21:49:37.064Z,1.20
2023-02-18T21:54:44.493Z,1.90
2023-02-18T21:57:19.816Z,1.70
2023-02-18T21:59:47.876Z,1.80
2023-02-18T22:02:24.659Z,2.20
2023-02-18T22:04:52.557Z,2.90
2023-02-18T22:07:21.517Z,2.00
2023-02-18T22:09:49.281Z,2.00
2023-02-18T22:12:17.147Z,2.10
2023-02-18T22:14:44.853Z,2.00
2023-02-18T22:17:13.674Z,2.20
2023-02-18T22:19:41.036Z,2.20
2023-02-18T22:22:09.130Z,2.50
2023-02-18T22:24:36.526Z,2.20
2023-02-18T22:27:03.709Z,1.80
2023-02-18T22:29:32.059Z,2.00
2023-02-18T22:31:59.669Z,2.10
2023-02-18T22:34:27.488Z,1.80
2023-02-18T22:36:54.842Z,1.40
2023-02-18T22:39:22.280Z,2.00
2023-02-18T22:44:19.108Z,1.90
2023-02-18T22:46:46.221Z,2.50
2023-02-18T22:49:15.648Z,1.90
2023-02-18T22:51:44.425Z,2.00
2023-02-18T22:54:16.665Z,2.20
2023-02-18T22:56:44.860Z,1.90
2023-02-18T22:59:14.935Z,1.90
2023-02-18T23:01:48.925Z,2.40
2023-02-18T23:04:18.395Z,2.50
2023-02-18T23:06:47.007Z,2.20
2023-02-18T23:09:17.861Z,3.20
2023-02-18T23:11:45.232Z,2.80
2023-02-18T23:14:20.976Z,2.60
2023-02-18T23:17:17.529Z,2.30
2023-02-18T23:19:50.481Z,2.50
2023-02-18T23:22:20.208Z,2.50
2023-02-18T23:24:49.438Z,2.40
2023-02-18T23:27:17.276Z,2.80
2023-02-18T23:29:44.571Z,2.90
2023-02-18T23:32:15.783Z,2.50
2023-02-18T23:34:43.777Z,2.40
2023-02-18T23:37:11.155Z,2.20
2023-02-18T23:39:40.857Z,2.50
2023-02-18T23:42:08.447Z,2.20
2023-02-18T23:47:03.111Z,2.10
2023-02-18T23:49:30.451Z,2.30
2023-02-18T23:51:58.193Z,2.30
2023-02-18T23:54:26.046Z,2.30
2023-02-18T23:56:53.058Z,2.50
2023-02-18T23:59:20.607Z,1.90
